Terminal Aerodrome Forecast
Issued by NWS

Home | Current Version | Previous Version | Graphics & Text | Print | Product List | Glossary On
Versions: 1 2 3 4 5 6 7 8 9 10 11 12 13 14 15
000
FTUS43 KMPX 232324
TAFRWF
TAF
KRWF 232324Z 2400/2424 14011KT P6SM OVC011
     FM241000 14010KT 6SM BR BKN010
     FM241500 13014G22KT P6SM OVC015
     FM241900 12013G20KT 6SM -RASN BKN025 OVC090
     FM242200 12013KT 2SM -RASN BR OVC010=

USA.gov is the U.S. government's official web portal to all federal, state and local government web resources and services.